Time;durP1;ratioP1;P1;durP2;ratioP2;P2;SDS_P1;SDS_P2;PMS_P1;PMS_P2;Temp;Humidity;BMP_temperature;BMP_pressure;BME280_temperature;BME280_humidity;BME280_pressure;Samples;Min_cycle;Max_cycle;Signal;HPM_P1;HPM_P2
2023/04/02 00:00:10;;;;;;;;;;;10.20;99.90;;;;;;5002871;28;19912;-81
2023/04/02 00:02:55;;;;;;;;;;;10.10;99.90;;;;;;4989946;28;19906;-80
2023/04/02 00:05:53;;;;;;;;;;;10.20;99.90;;;;;;4985776;28;20369;-80
2023/04/02 00:08:39;;;;;;;;;;;10.20;99.90;;;;;;4968407;28;19920;-81
2023/04/02 00:11:06;;;;;;;;;;;10.20;99.90;;;;;;4999627;28;19913;-81
2023/04/02 00:13:34;;;;;;;;;;;10.20;99.90;;;;;;5003101;28;19913;-81
2023/04/02 00:16:02;;;;;;;;;;;10.20;99.90;;;;;;4996094;28;19913;-81
2023/04/02 00:18:37;;;;;;;;;;;10.30;99.90;;;;;;5004785;28;19921;-80
2023/04/02 00:21:25;;;;;;;;;;;10.20;99.90;;;;;;5002512;28;19909;-82
2023/04/02 00:23:59;;;;;;;;;;;10.30;99.90;;;;;;4985500;28;19916;-81
2023/04/02 00:26:33;;;;;;;;;;;10.30;99.90;;;;;;4996205;28;19918;-81
2023/04/02 00:29:06;;;;;;;;;;;10.20;99.90;;;;;;5003768;28;19950;-81
2023/04/02 00:31:36;;;;;;;;;;;10.20;99.90;;;;;;4993036;28;19909;-81
2023/04/02 00:34:07;;;;;;;;;;;10.20;99.90;;;;;;5000098;28;19914;-81
2023/04/02 00:36:37;;;;;;;;;;;10.10;99.90;;;;;;4992132;28;19953;-80
2023/04/02 00:39:09;;;;;;;;;;;10.00;99.90;;;;;;5004201;28;20020;-80
2023/04/02 00:41:37;;;;;;;;;;;10.00;99.90;;;;;;5018422;28;19959;-80
2023/04/02 00:44:11;;;;;;;;;;;10.00;99.90;;;;;;5008727;28;19913;-81
2023/04/02 00:46:52;;;;;;;;;;;9.90;99.90;;;;;;4980783;28;19913;-81
2023/04/02 00:49:28;;;;;;;;;;;9.90;99.90;;;;;;4981023;28;19948;-80
2023/04/02 00:52:00;;;;;;;;;;;9.90;99.90;;;;;;5001479;28;19913;-80
2023/04/02 00:54:30;;;;;;;;;;;9.90;99.90;;;;;;5000294;28;19912;-80
2023/04/02 00:57:00;;;;;;;;;;;9.80;99.90;;;;;;4980857;28;19909;-80
2023/04/02 00:59:35;;;;;;;;;;;9.90;99.90;;;;;;4998385;28;20933;-82
2023/04/02 01:02:21;;;;;;;;;;;9.90;99.90;;;;;;4990304;28;19999;-81
2023/04/02 01:05:01;;;;;;;;;;;9.80;99.90;;;;;;4989467;28;19947;-80
2023/04/02 01:07:33;;;;;;;;;;;9.80;99.90;;;;;;5007793;28;20570;-81
2023/04/02 01:10:04;;;;;;;;;;;9.80;99.90;;;;;;4988148;28;19929;-81
2023/04/02 01:12:39;;;;;;;;;;;9.80;99.90;;;;;;4991375;28;19948;-80
2023/04/02 01:15:18;;;;;;;;;;;9.80;99.90;;;;;;4996648;28;19909;-80
2023/04/02 01:20:46;;;;;;;;;;;9.80;99.90;;;;;;5004516;28;19910;-81
2023/04/02 01:23:19;;;;;;;;;;;9.70;99.90;;;;;;4982069;28;19917;-80
2023/04/02 01:26:04;;;;;;;;;;;9.70;99.90;;;;;;4980850;28;19916;-81
2023/04/02 01:28:46;;;;;;;;;;;9.60;99.90;;;;;;4983174;28;19913;-81
2023/04/02 01:31:13;;;;;;;;;;;9.60;99.90;;;;;;5000518;28;19906;-81
2023/04/02 01:33:40;;;;;;;;;;;9.60;99.90;;;;;;5010806;28;19917;-81
2023/04/02 01:36:22;;;;;;;;;;;9.60;99.90;;;;;;5000296;28;19909;-81
2023/04/02 01:38:52;;;;;;;;;;;9.60;99.90;;;;;;5007170;28;19906;-81
2023/04/02 01:41:23;;;;;;;;;;;9.60;99.90;;;;;;4983730;28;19913;-80
2023/04/02 01:43:57;;;;;;;;;;;9.60;99.90;;;;;;5008313;28;20278;-81
2023/04/02 01:46:26;;;;;;;;;;;9.60;99.90;;;;;;5003915;28;19913;-81
2023/04/02 01:48:55;;;;;;;;;;;9.60;99.90;;;;;;5000521;28;20575;-81
2023/04/02 01:51:26;;;;;;;;;;;9.60;99.90;;;;;;4999177;28;20343;-80
2023/04/02 01:53:52;;;;;;;;;;;9.60;99.90;;;;;;4997102;28;20367;-81
2023/04/02 01:56:17;;;;;;;;;;;9.70;99.90;;;;;;4995620;28;19909;-81
2023/04/02 01:58:48;;;;;;;;;;;9.60;99.90;;;;;;5004995;28;19913;-82
2023/04/02 02:01:26;;;;;;;;;;;9.60;99.90;;;;;;5004179;28;20266;-81
2023/04/02 02:04:03;;;;;;;;;;;9.50;99.90;;;;;;4994604;28;19905;-81
2023/04/02 02:06:30;;;;;;;;;;;9.60;99.90;;;;;;4975579;28;20758;-81
2023/04/02 02:09:03;;;;;;;;;;;9.50;99.90;;;;;;5000215;28;20271;-82
2023/04/02 02:11:30;;;;;;;;;;;9.50;99.90;;;;;;4997473;28;20306;-81
2023/04/02 02:13:57;;;;;;;;;;;9.40;99.90;;;;;;4999766;28;19953;-81
2023/04/02 02:16:23;;;;;;;;;;;9.40;99.90;;;;;;4986707;28;20361;-81
2023/04/02 02:19:01;;;;;;;;;;;9.40;99.90;;;;;;5000554;28;19913;-81
2023/04/02 02:21:38;;;;;;;;;;;9.40;99.90;;;;;;4997402;28;19961;-81
2023/04/02 02:24:06;;;;;;;;;;;9.50;99.90;;;;;;4987253;28;19936;-81
2023/04/02 02:26:35;;;;;;;;;;;9.50;99.90;;;;;;5007386;28;19919;-81
2023/04/02 02:29:02;;;;;;;;;;;9.50;99.90;;;;;;4998291;28;20294;-81
2023/04/02 02:31:29;;;;;;;;;;;9.50;99.90;;;;;;5007338;28;19913;-81
2023/04/02 02:34:22;;;;;;;;;;;9.50;99.90;;;;;;5002530;28;19913;-81
2023/04/02 02:36:58;;;;;;;;;;;9.60;99.90;;;;;;4988262;28;19910;-81
2023/04/02 02:39:38;;;;;;;;;;;9.60;99.90;;;;;;5006883;28;19912;-81
2023/04/02 02:42:14;;;;;;;;;;;9.60;99.90;;;;;;4998099;28;20430;-81
2023/04/02 02:44:48;;;;;;;;;;;9.60;99.90;;;;;;5009306;28;20007;-80
2023/04/02 02:47:15;;;;;;;;;;;9.60;99.90;;;;;;4993995;28;20268;-81
2023/04/02 02:49:51;;;;;;;;;;;9.50;99.90;;;;;;5003276;28;19905;-80
2023/04/02 02:52:36;;;;;;;;;;;9.50;99.90;;;;;;4991755;28;20236;-81
2023/04/02 02:55:18;;;;;;;;;;;9.40;99.90;;;;;;5008580;28;21026;-81
2023/04/02 02:57:58;;;;;;;;;;;9.40;99.90;;;;;;5002059;28;19995;-80
2023/04/02 03:00:34;;;;;;;;;;;9.40;99.90;;;;;;5004043;28;19953;-81
2023/04/02 03:03:03;;;;;;;;;;;9.40;99.90;;;;;;4993116;28;19921;-81
2023/04/02 03:05:31;;;;;;;;;;;9.40;99.90;;;;;;4997512;28;19914;-80
2023/04/02 03:08:18;;;;;;;;;;;9.30;99.90;;;;;;5002831;28;19917;-80
2023/04/02 03:11:01;;;;;;;;;;;9.30;99.90;;;;;;4982749;28;20471;-81
2023/04/02 03:13:34;;;;;;;;;;;9.30;99.90;;;;;;5005838;28;20270;-81
2023/04/02 03:16:04;;;;;;;;;;;9.20;99.90;;;;;;5001616;28;19979;-81
2023/04/02 03:18:31;;;;;;;;;;;9.20;99.90;;;;;;5000745;28;19920;-81
2023/04/02 03:21:29;;;;;;;;;;;9.20;99.90;;;;;;5000637;28;19909;-81
2023/04/02 03:24:03;;;;;;;;;;;9.20;99.90;;;;;;4957605;28;19958;-81
2023/04/02 03:26:56;;;;;;;;;;;9.10;99.90;;;;;;4988814;28;19905;-82
2023/04/02 03:29:25;;;;;;;;;;;9.10;99.90;;;;;;4932633;28;19906;-80
2023/04/02 03:32:27;;;;;;;;;;;9.20;99.90;;;;;;4973176;28;20612;-82
2023/04/02 03:35:02;;;;;;;;;;;9.10;99.90;;;;;;4924219;29;19907;-81
2023/04/02 03:37:50;;;;;;;;;;;9.00;99.90;;;;;;4975132;28;20079;-81
2023/04/02 03:40:38;;;;;;;;;;;9.00;99.90;;;;;;5004923;28;19984;-81
2023/04/02 03:43:05;;;;;;;;;;;9.10;99.90;;;;;;5005253;28;20263;-81
2023/04/02 03:45:35;;;;;;;;;;;9.10;99.90;;;;;;4999619;28;20002;-81
2023/04/02 03:51:06;;;;;;;;;;;9.10;99.90;;;;;;5003017;28;19951;-81
2023/04/02 03:53:39;;;;;;;;;;;9.10;99.90;;;;;;4994334;28;19919;-80
2023/04/02 03:56:06;;;;;;;;;;;9.00;99.90;;;;;;4986507;28;19914;-80
2023/04/02 03:58:48;;;;;;;;;;;9.10;99.90;;;;;;4982101;28;19975;-81
2023/04/02 04:01:21;;;;;;;;;;;9.10;99.90;;;;;;4989642;28;19972;-81
2023/04/02 04:03:52;;;;;;;;;;;9.10;99.90;;;;;;4984932;28;19905;-81
2023/04/02 04:06:28;;;;;;;;;;;9.10;99.90;;;;;;4985258;28;19910;-81
2023/04/02 04:09:04;;;;;;;;;;;9.20;99.90;;;;;;4998134;28;19906;-82
2023/04/02 04:11:52;;;;;;;;;;;9.20;99.90;;;;;;4986849;28;20071;-81
2023/04/02 04:14:40;;;;;;;;;;;9.20;99.90;;;;;;4987682;28;19909;-81
2023/04/02 04:17:29;;;;;;;;;;;9.20;99.90;;;;;;5005686;28;19905;-81
2023/04/02 04:20:10;;;;;;;;;;;9.20;99.90;;;;;;4985225;28;19964;-81
2023/04/02 04:22:54;;;;;;;;;;;9.20;99.90;;;;;;5003751;28;19912;-80
2023/04/02 04:25:32;;;;;;;;;;;9.20;99.90;;;;;;4993028;28;20271;-81
2023/04/02 04:31:02;;;;;;;;;;;9.30;99.90;;;;;;4999811;28;19912;-81
2023/04/02 04:33:38;;;;;;;;;;;9.30;99.90;;;;;;4989690;28;19913;-81
2023/04/02 04:36:05;;;;;;;;;;;9.20;99.90;;;;;;5003186;28;20365;-81
2023/04/02 04:38:48;;;;;;;;;;;9.20;99.90;;;;;;5004319;28;20532;-81
2023/04/02 04:41:21;;;;;;;;;;;9.20;99.90;;;;;;4993828;28;19912;-81
2023/04/02 04:43:56;;;;;;;;;;;9.30;99.90;;;;;;5007945;28;19913;-81
2023/04/02 04:46:31;;;;;;;;;;;9.30;99.90;;;;;;5008541;28;19905;-81
2023/04/02 04:49:06;;;;;;;;;;;9.30;99.90;;;;;;5001484;28;19956;-81
2023/04/02 04:51:45;;;;;;;;;;;9.40;99.90;;;;;;4995355;28;19960;-81
2023/04/02 04:54:15;;;;;;;;;;;9.40;99.90;;;;;;4995281;28;19916;-81
2023/04/02 04:56:53;;;;;;;;;;;9.50;99.90;;;;;;4989793;28;20385;-81
2023/04/02 04:59:31;;;;;;;;;;;9.50;99.90;;;;;;5003861;28;19906;-81
2023/04/02 05:02:28;;;;;;;;;;;9.50;99.90;;;;;;5012042;28;19913;-82
2023/04/02 05:04:57;;;;;;;;;;;9.50;99.90;;;;;;4976679;28;19906;-82
2023/04/02 05:07:23;;;;;;;;;;;9.50;99.90;;;;;;4993231;28;19994;-82
2023/04/02 05:10:14;;;;;;;;;;;9.60;99.90;;;;;;5013777;28;19909;-82
2023/04/02 05:13:04;;;;;;;;;;;9.60;99.90;;;;;;5008627;28;20262;-82
2023/04/02 05:16:01;;;;;;;;;;;9.60;99.90;;;;;;4993929;28;19920;-82
2023/04/02 05:18:37;;;;;;;;;;;9.70;99.90;;;;;;4966459;28;19996;-81
2023/04/02 05:21:06;;;;;;;;;;;9.70;99.90;;;;;;4994967;28;20781;-81
2023/04/02 05:23:58;;;;;;;;;;;9.70;99.90;;;;;;5006795;28;19914;-81
2023/04/02 05:26:28;;;;;;;;;;;9.70;99.90;;;;;;4982162;28;19996;-82
2023/04/02 05:29:19;;;;;;;;;;;9.80;99.90;;;;;;4994204;28;19906;-82
2023/04/02 05:31:47;;;;;;;;;;;9.80;99.90;;;;;;5001014;28;19909;-81
2023/04/02 05:34:22;;;;;;;;;;;9.80;99.90;;;;;;5007685;28;19905;-81
2023/04/02 05:36:47;;;;;;;;;;;9.80;99.90;;;;;;5009941;28;19940;-81
2023/04/02 05:39:17;;;;;;;;;;;9.90;99.90;;;;;;4995751;28;19965;-81
2023/04/02 05:41:46;;;;;;;;;;;9.90;99.90;;;;;;5019501;28;19944;-82
2023/04/02 05:44:25;;;;;;;;;;;9.90;99.90;;;;;;4995027;28;19917;-81
2023/04/02 05:46:57;;;;;;;;;;;9.90;99.90;;;;;;5014045;28;19916;-83
2023/04/02 05:49:26;;;;;;;;;;;9.90;99.90;;;;;;4985954;28;19996;-81
2023/04/02 05:51:55;;;;;;;;;;;10.00;99.90;;;;;;5002460;28;19915;-81
2023/04/02 05:54:31;;;;;;;;;;;10.00;99.90;;;;;;5006333;28;19912;-82
2023/04/02 05:57:03;;;;;;;;;;;10.00;99.90;;;;;;4998288;28;20658;-81
2023/04/02 05:59:32;;;;;;;;;;;9.90;99.90;;;;;;5000479;28;19917;-81
2023/04/02 06:02:07;;;;;;;;;;;9.90;99.90;;;;;;5011110;28;19916;-81
2023/04/02 06:04:55;;;;;;;;;;;9.90;99.90;;;;;;5007394;28;20043;-81
2023/04/02 06:07:31;;;;;;;;;;;9.90;99.90;;;;;;5007297;28;19936;-82
2023/04/02 06:09:56;;;;;;;;;;;10.00;99.90;;;;;;5002199;28;19921;-81
2023/04/02 06:12:51;;;;;;;;;;;10.00;99.90;;;;;;4993602;28;20335;-81
2023/04/02 06:15:23;;;;;;;;;;;10.10;99.90;;;;;;4977886;28;19905;-81
2023/04/02 06:17:57;;;;;;;;;;;10.20;99.90;;;;;;4990143;28;19960;-81
2023/04/02 06:20:28;;;;;;;;;;;10.30;99.90;;;;;;5004684;28;20920;-82
2023/04/02 06:23:12;;;;;;;;;;;10.40;99.90;;;;;;4997517;28;19915;-82
2023/04/02 06:25:43;;;;;;;;;;;10.50;99.90;;;;;;5012465;28;19905;-81
2023/04/02 06:28:18;;;;;;;;;;;10.60;99.90;;;;;;4997958;28;19917;-81
2023/04/02 06:30:44;;;;;;;;;;;10.70;99.90;;;;;;4981368;28;19906;-81
2023/04/02 06:33:11;;;;;;;;;;;10.90;99.90;;;;;;5008538;28;20534;-81
2023/04/02 06:35:39;;;;;;;;;;;11.00;99.90;;;;;;4996415;28;19945;-81
2023/04/02 06:38:11;;;;;;;;;;;11.10;99.90;;;;;;4996393;28;19909;-82
2023/04/02 06:40:40;;;;;;;;;;;11.20;99.90;;;;;;5004364;28;19901;-81
2023/04/02 06:43:25;;;;;;;;;;;11.20;99.90;;;;;;4985679;28;19912;-81
2023/04/02 06:45:56;;;;;;;;;;;11.50;99.90;;;;;;4983492;28;20321;-81
2023/04/02 06:48:24;;;;;;;;;;;11.90;99.90;;;;;;4995715;28;20619;-81
2023/04/02 06:50:56;;;;;;;;;;;12.50;99.90;;;;;;5002443;28;19905;-82
2023/04/02 06:53:37;;;;;;;;;;;13.10;99.90;;;;;;4999572;28;19913;-82
2023/04/02 06:56:11;;;;;;;;;;;13.70;99.90;;;;;;4988118;28;19964;-81
2023/04/02 06:58:38;;;;;;;;;;;14.00;99.90;;;;;;4990416;28;19905;-81
2023/04/02 07:01:04;;;;;;;;;;;14.00;99.90;;;;;;5001186;28;19910;-81
2023/04/02 07:03:31;;;;;;;;;;;14.30;99.90;;;;;;4992698;28;19914;-81
2023/04/02 07:06:02;;;;;;;;;;;14.70;99.90;;;;;;4995900;28;19913;-81
2023/04/02 07:08:27;;;;;;;;;;;14.90;99.90;;;;;;5001751;28;20689;-81
2023/04/02 07:11:04;;;;;;;;;;;15.40;99.90;;;;;;5005928;28;19991;-82
2023/04/02 07:13:32;;;;;;;;;;;15.70;99.90;;;;;;4978400;28;20554;-82
2023/04/02 07:15:58;;;;;;;;;;;15.90;99.90;;;;;;5000032;28;19992;-81
2023/04/02 07:18:47;;;;;;;;;;;15.60;99.90;;;;;;4998563;28;20377;-82
2023/04/02 07:21:16;;;;;;;;;;;15.10;99.90;;;;;;4979973;28;19909;-82
2023/04/02 07:23:47;;;;;;;;;;;15.70;99.90;;;;;;5002502;28;19945;-81
2023/04/02 07:26:15;;;;;;;;;;;16.00;99.90;;;;;;4990786;28;19906;-82
2023/04/02 07:28:49;;;;;;;;;;;15.90;99.90;;;;;;4992392;28;19913;-82
2023/04/02 07:31:20;;;;;;;;;;;16.10;99.90;;;;;;4976528;28;19968;-82
2023/04/02 07:33:47;;;;;;;;;;;15.70;99.90;;;;;;5003562;28;20271;-81
2023/04/02 07:36:18;;;;;;;;;;;15.70;99.90;;;;;;5006589;28;19979;-82
2023/04/02 07:38:44;;;;;;;;;;;16.00;99.90;;;;;;5002716;28;19905;-81
2023/04/02 07:41:10;;;;;;;;;;;17.00;99.90;;;;;;4991704;28;19910;-82
2023/04/02 07:43:36;;;;;;;;;;;18.10;99.90;;;;;;4985333;28;19916;-82
2023/04/02 07:46:02;;;;;;;;;;;18.70;99.90;;;;;;5004558;28;20032;-81
2023/04/02 07:48:28;;;;;;;;;;;18.70;99.90;;;;;;4990773;28;19917;-81
2023/04/02 07:50:54;;;;;;;;;;;18.30;99.90;;;;;;4999544;28;19934;-81
2023/04/02 07:53:28;;;;;;;;;;;17.90;99.90;;;;;;4989493;28;19910;-81
2023/04/02 07:55:55;;;;;;;;;;;17.80;99.90;;;;;;4995580;28;20024;-82
2023/04/02 07:58:22;;;;;;;;;;;17.70;99.90;;;;;;4994855;28;20000;-82
2023/04/02 08:00:48;;;;;;;;;;;17.40;99.90;;;;;;5004110;28;20000;-81
2023/04/02 08:03:15;;;;;;;;;;;16.80;99.90;;;;;;5008121;28;19910;-81
2023/04/02 08:05:42;;;;;;;;;;;16.40;99.90;;;;;;4995979;28;19916;-81
2023/04/02 08:08:09;;;;;;;;;;;16.60;99.90;;;;;;4998149;28;19909;-81
2023/04/02 08:10:44;;;;;;;;;;;17.10;99.90;;;;;;4992943;28;19920;-81
2023/04/02 08:13:10;;;;;;;;;;;17.70;99.90;;;;;;4992953;28;20016;-81
2023/04/02 08:15:37;;;;;;;;;;;18.50;99.90;;;;;;5002254;28;20454;-81
2023/04/02 08:18:02;;;;;;;;;;;19.40;99.90;;;;;;4997244;28;19921;-82
2023/04/02 08:20:28;;;;;;;;;;;18.30;99.90;;;;;;5008015;28;19905;-81
2023/04/02 08:23:00;;;;;;;;;;;18.50;99.90;;;;;;5000982;28;19905;-81
2023/04/02 08:25:31;;;;;;;;;;;18.40;99.90;;;;;;4993521;28;20374;-81
2023/04/02 08:28:00;;;;;;;;;;;18.10;99.90;;;;;;4980508;28;19914;-81
2023/04/02 08:30:25;;;;;;;;;;;17.80;99.90;;;;;;5006954;28;20880;-81
2023/04/02 08:32:59;;;;;;;;;;;17.70;99.90;;;;;;4996342;28;20505;-81
2023/04/02 08:35:28;;;;;;;;;;;17.20;99.90;;;;;;4990709;28;21319;-81
2023/04/02 08:37:56;;;;;;;;;;;16.80;99.90;;;;;;5000241;28;19912;-82
2023/04/02 08:40:46;;;;;;;;;;;16.30;99.90;;;;;;5006100;28;19909;-82
2023/04/02 08:43:14;;;;;;;;;;;15.70;99.90;;;;;;4982271;28;19909;-81
2023/04/02 08:45:59;;;;;;;;;;;15.10;99.90;;;;;;4996060;28;19955;-81
2023/04/02 08:48:25;;;;;;;;;;;14.80;99.90;;;;;;4993099;28;19913;-81
2023/04/02 08:50:52;;;;;;;;;;;14.90;99.90;;;;;;5003544;28;19932;-81
2023/04/02 08:53:24;;;;;;;;;;;14.70;99.90;;;;;;4994603;28;19910;-81
2023/04/02 08:56:04;;;;;;;;;;;14.70;99.90;;;;;;5002076;28;19905;-81
2023/04/02 08:58:42;;;;;;;;;;;14.80;99.90;;;;;;4978015;28;19914;-81
2023/04/02 09:01:33;;;;;;;;;;;14.70;99.90;;;;;;4976351;28;19905;-80
2023/04/02 09:04:02;;;;;;;;;;;14.90;99.90;;;;;;4998154;28;19909;-81
2023/04/02 09:06:28;;;;;;;;;;;15.10;99.90;;;;;;5004242;28;20512;-81
2023/04/02 09:08:55;;;;;;;;;;;15.20;99.90;;;;;;4997266;28;19914;-81
2023/04/02 09:11:23;;;;;;;;;;;15.30;99.90;;;;;;5006549;28;19992;-82
2023/04/02 09:13:57;;;;;;;;;;;15.50;99.90;;;;;;5004521;28;19963;-81
2023/04/02 09:16:33;;;;;;;;;;;15.50;99.90;;;;;;5004358;28;19910;-82
2023/04/02 09:18:59;;;;;;;;;;;15.50;99.90;;;;;;4991597;28;19913;-81
2023/04/02 09:21:31;;;;;;;;;;;15.40;99.90;;;;;;4979068;28;19972;-81
2023/04/02 09:23:57;;;;;;;;;;;15.10;99.90;;;;;;4971863;28;20035;-81
2023/04/02 09:26:28;;;;;;;;;;;15.10;99.90;;;;;;4979538;28;20037;-81
2023/04/02 09:29:12;;;;;;;;;;;14.90;99.90;;;;;;4999410;28;19912;-82
2023/04/02 09:31:39;;;;;;;;;;;14.60;99.90;;;;;;4977860;28;20267;-81
2023/04/02 09:34:25;;;;;;;;;;;14.50;99.90;;;;;;4997005;28;19913;-82
2023/04/02 09:37:06;;;;;;;;;;;14.50;99.90;;;;;;5007435;28;19905;-81
2023/04/02 09:39:36;;;;;;;;;;;14.50;99.90;;;;;;4999526;28;19997;-82
2023/04/02 09:42:06;;;;;;;;;;;14.80;99.90;;;;;;5002884;28;19924;-81
2023/04/02 09:44:34;;;;;;;;;;;15.00;99.90;;;;;;5005014;28;19912;-81
2023/04/02 09:47:02;;;;;;;;;;;15.30;99.90;;;;;;4995885;28;19921;-81
2023/04/02 09:49:47;;;;;;;;;;;15.40;99.90;;;;;;5001963;28;19913;-81
2023/04/02 09:52:30;;;;;;;;;;;15.70;99.90;;;;;;4977158;28;20340;-81
2023/04/02 09:58:21;;;;;;;;;;;17.20;99.90;;;;;;5004098;28;19959;-81
2023/04/02 10:00:53;;;;;;;;;;;18.50;99.90;;;;;;4928043;29;19950;-82
2023/04/02 10:03:25;;;;;;;;;;;19.70;99.80;;;;;;4991318;28;19905;-83
2023/04/02 10:06:11;;;;;;;;;;;22.40;96.40;;;;;;4981867;28;19905;-82
2023/04/02 10:08:41;;;;;;;;;;;23.70;91.80;;;;;;4978615;28;19921;-82
2023/04/02 10:11:09;;;;;;;;;;;24.20;87.70;;;;;;5002698;28;19948;-81
2023/04/02 10:13:55;;;;;;;;;;;24.00;84.70;;;;;;5000603;28;20008;-82
2023/04/02 10:16:31;;;;;;;;;;;22.70;84.90;;;;;;5004206;28;19909;-81
2023/04/02 10:19:25;;;;;;;;;;;21.50;88.60;;;;;;4992978;28;20052;-81
2023/04/02 10:21:59;;;;;;;;;;;20.30;90.20;;;;;;5007361;28;19933;-81
2023/04/02 10:24:28;;;;;;;;;;;19.40;92.10;;;;;;4995118;28;20016;-81
2023/04/02 10:27:16;;;;;;;;;;;19.30;94.30;;;;;;4992293;28;19909;-82
2023/04/02 10:30:00;;;;;;;;;;;19.20;94.30;;;;;;4985277;28;19975;-81
2023/04/02 10:32:32;;;;;;;;;;;19.10;94.70;;;;;;4998734;28;20263;-81
2023/04/02 10:35:02;;;;;;;;;;;18.80;95.70;;;;;;4988753;28;19949;-81
2023/04/02 10:37:50;;;;;;;;;;;19.20;96.20;;;;;;4997401;28;20467;-81
2023/04/02 10:40:18;;;;;;;;;;;19.70;95.60;;;;;;5000071;28;20450;-80
2023/04/02 10:42:52;;;;;;;;;;;19.20;95.80;;;;;;5001034;28;19945;-81
2023/04/02 10:45:38;;;;;;;;;;;18.40;95.70;;;;;;4986758;28;19943;-81
2023/04/02 10:48:06;;;;;;;;;;;18.00;97.20;;;;;;4983345;28;19913;-81
2023/04/02 10:50:50;;;;;;;;;;;17.60;98.30;;;;;;4992023;28;19924;-81
2023/04/02 10:53:50;;;;;;;;;;;17.30;98.40;;;;;;5005246;28;20405;-81
2023/04/02 10:56:15;;;;;;;;;;;17.30;99.80;;;;;;4938579;28;19910;-82
2023/04/02 10:59:05;;;;;;;;;;;16.80;99.90;;;;;;4994764;28;19906;-81
2023/04/02 11:01:40;;;;;;;;;;;16.70;99.90;;;;;;4984616;28;19917;-81
2023/04/02 11:04:13;;;;;;;;;;;16.50;99.90;;;;;;4995194;28;19920;-81
2023/04/02 11:06:49;;;;;;;;;;;16.40;99.90;;;;;;4992874;28;19916;-81
2023/04/02 11:09:30;;;;;;;;;;;16.20;99.90;;;;;;4994488;28;20758;-82
2023/04/02 11:12:00;;;;;;;;;;;16.10;99.90;;;;;;4998155;28;19948;-81
2023/04/02 11:14:28;;;;;;;;;;;15.70;99.90;;;;;;5001058;28;19917;-81
2023/04/02 11:17:00;;;;;;;;;;;15.50;99.90;;;;;;4997689;28;19905;-82
2023/04/02 11:19:30;;;;;;;;;;;15.20;99.90;;;;;;5004605;28;19928;-81
2023/04/02 11:22:15;;;;;;;;;;;15.10;99.90;;;;;;4997914;28;19956;-82
2023/04/02 11:24:55;;;;;;;;;;;15.20;99.90;;;;;;4982800;28;19910;-81
2023/04/02 11:27:36;;;;;;;;;;;15.20;99.90;;;;;;4987755;28;19917;-80
2023/04/02 11:30:14;;;;;;;;;;;15.20;99.90;;;;;;4995979;28;19917;-81
2023/04/02 11:32:42;;;;;;;;;;;15.10;99.90;;;;;;4981436;28;20327;-84
2023/04/02 11:35:29;;;;;;;;;;;14.70;99.90;;;;;;4986365;28;19905;-81
2023/04/02 11:38:13;;;;;;;;;;;14.50;99.90;;;;;;4975521;28;20017;-82
2023/04/02 11:40:48;;;;;;;;;;;14.40;99.90;;;;;;5005416;28;19912;-81
2023/04/02 11:43:30;;;;;;;;;;;14.10;99.90;;;;;;4981473;28;19992;-82
2023/04/02 11:46:19;;;;;;;;;;;13.70;99.90;;;;;;4991167;28;19905;-81
2023/04/02 11:48:46;;;;;;;;;;;12.90;99.90;;;;;;4977931;28;19913;-81
2023/04/02 11:51:31;;;;;;;;;;;12.30;99.90;;;;;;4992561;28;19996;-81
2023/04/02 11:54:03;;;;;;;;;;;11.90;99.90;;;;;;4983252;28;19913;-81
2023/04/02 11:56:53;;;;;;;;;;;11.70;99.90;;;;;;4996660;28;19914;-82
2023/04/02 11:59:31;;;;;;;;;;;11.50;99.90;;;;;;4993318;28;20633;-81
2023/04/02 12:01:59;;;;;;;;;;;11.20;99.90;;;;;;4990274;28;19924;-82
2023/04/02 12:04:44;;;;;;;;;;;10.80;99.90;;;;;;4989590;28;19992;-81
2023/04/02 12:07:33;;;;;;;;;;;10.60;99.90;;;;;;4997804;28;20363;-81
2023/04/02 12:10:26;;;;;;;;;;;10.10;99.90;;;;;;4995917;28;19926;-82
2023/04/02 12:13:01;;;;;;;;;;;10.00;99.90;;;;;;4988424;28;19909;-82
2023/04/02 12:15:47;;;;;;;;;;;9.60;99.90;;;;;;5001042;28;19929;-82
2023/04/02 12:18:19;;;;;;;;;;;9.30;99.90;;;;;;4992672;28;19905;-82
2023/04/02 12:20:51;;;;;;;;;;;9.20;99.90;;;;;;5005555;28;19991;-81
2023/04/02 12:23:19;;;;;;;;;;;9.10;99.90;;;;;;4999054;28;19909;-81
2023/04/02 12:25:53;;;;;;;;;;;9.00;99.90;;;;;;4997698;28;19906;-80
2023/04/02 12:28:21;;;;;;;;;;;9.00;99.90;;;;;;4995768;28;19913;-81
2023/04/02 12:30:51;;;;;;;;;;;8.90;99.90;;;;;;4992858;28;20629;-81
2023/04/02 12:33:35;;;;;;;;;;;8.90;99.90;;;;;;4994646;28;19951;-81
2023/04/02 12:36:05;;;;;;;;;;;8.80;99.90;;;;;;5001256;28;19959;-81
2023/04/02 12:38:43;;;;;;;;;;;8.70;99.90;;;;;;4995492;28;19913;-81
2023/04/02 12:41:22;;;;;;;;;;;8.70;99.90;;;;;;5001594;28;19906;-81
2023/04/02 12:44:00;;;;;;;;;;;9.00;99.90;;;;;;5004030;28;19935;-81
2023/04/02 12:46:28;;;;;;;;;;;9.00;99.90;;;;;;4994210;28;19913;-81
2023/04/02 12:49:07;;;;;;;;;;;9.10;99.90;;;;;;4999144;28;19909;-82
2023/04/02 12:51:36;;;;;;;;;;;9.20;99.90;;;;;;4990915;28;19910;-81
2023/04/02 12:54:02;;;;;;;;;;;9.10;99.90;;;;;;4996622;28;19913;-81
2023/04/02 12:56:33;;;;;;;;;;;9.00;99.90;;;;;;4996293;28;19919;-80
2023/04/02 12:59:00;;;;;;;;;;;9.10;99.90;;;;;;4996799;28;19928;-81
2023/04/02 13:01:30;;;;;;;;;;;9.00;99.90;;;;;;4998338;28;19973;-81
2023/04/02 13:04:05;;;;;;;;;;;8.90;99.90;;;;;;5003345;28;19913;-81
2023/04/02 13:06:36;;;;;;;;;;;8.80;99.90;;;;;;5001765;28;19909;-81
2023/04/02 13:09:04;;;;;;;;;;;8.70;99.90;;;;;;5000461;28;19916;-81
2023/04/02 13:11:38;;;;;;;;;;;8.70;99.90;;;;;;5009160;28;20365;-82
2023/04/02 13:14:04;;;;;;;;;;;8.90;99.90;;;;;;4983229;28;20434;-82
2023/04/02 13:16:34;;;;;;;;;;;9.00;99.90;;;;;;5005885;28;19913;-81
2023/04/02 13:19:18;;;;;;;;;;;9.00;99.90;;;;;;4982197;28;20363;-81
2023/04/02 13:21:44;;;;;;;;;;;8.90;99.90;;;;;;5002516;28;19910;-82
2023/04/02 13:24:17;;;;;;;;;;;8.80;99.90;;;;;;4996538;28;19937;-81
2023/04/02 13:26:46;;;;;;;;;;;8.90;99.90;;;;;;4999684;28;19912;-81
2023/04/02 13:29:31;;;;;;;;;;;9.00;99.90;;;;;;4998055;28;19909;-81
2023/04/02 13:31:58;;;;;;;;;;;9.00;99.90;;;;;;4993549;28;19913;-82
2023/04/02 13:34:27;;;;;;;;;;;9.00;99.90;;;;;;5010083;28;20405;-81
2023/04/02 13:37:03;;;;;;;;;;;9.20;99.90;;;;;;5007114;28;19913;-81
2023/04/02 13:39:29;;;;;;;;;;;9.40;99.90;;;;;;5001100;28;20624;-81
2023/04/02 13:42:00;;;;;;;;;;;9.70;99.90;;;;;;5000556;28;21419;-82
2023/04/02 13:44:29;;;;;;;;;;;9.70;99.90;;;;;;5007176;28;19972;-81
2023/04/02 13:46:55;;;;;;;;;;;9.90;99.90;;;;;;4997852;28;20371;-81
2023/04/02 13:49:22;;;;;;;;;;;9.90;99.90;;;;;;5007335;28;19984;-81
2023/04/02 13:51:56;;;;;;;;;;;10.30;99.90;;;;;;4979840;28;19912;-81
2023/04/02 13:54:25;;;;;;;;;;;10.80;99.90;;;;;;5004024;28;20652;-81
2023/04/02 13:56:54;;;;;;;;;;;11.30;99.90;;;;;;4998424;28;20021;-82
2023/04/02 13:59:24;;;;;;;;;;;11.80;99.90;;;;;;4995585;28;19913;-82
2023/04/02 14:01:53;;;;;;;;;;;12.30;99.90;;;;;;4985210;28;19913;-82
2023/04/02 14:04:21;;;;;;;;;;;12.70;99.90;;;;;;5000636;28;19901;-82
2023/04/02 14:06:58;;;;;;;;;;;12.80;99.90;;;;;;5004610;28;19944;-81
2023/04/02 14:09:25;;;;;;;;;;;12.70;99.90;;;;;;5008865;28;19905;-82
2023/04/02 14:12:03;;;;;;;;;;;12.40;99.90;;;;;;4984020;28;20025;-82
2023/04/02 14:14:43;;;;;;;;;;;12.10;99.90;;;;;;4987421;28;19917;-82
2023/04/02 14:17:18;;;;;;;;;;;11.80;99.90;;;;;;4992082;28;19940;-82
2023/04/02 14:20:02;;;;;;;;;;;11.30;99.90;;;;;;4987059;28;19906;-82
2023/04/02 14:22:40;;;;;;;;;;;11.10;99.90;;;;;;4973944;28;19910;-83
2023/04/02 14:25:27;;;;;;;;;;;10.80;99.90;;;;;;5008516;28;19917;-82
2023/04/02 14:27:54;;;;;;;;;;;10.70;99.90;;;;;;4982433;28;19921;-82
2023/04/02 14:30:24;;;;;;;;;;;10.40;99.90;;;;;;4991141;28;20524;-82
2023/04/02 14:33:20;;;;;;;;;;;10.30;99.90;;;;;;4993297;28;20000;-83
2023/04/02 14:35:48;;;;;;;;;;;10.20;99.90;;;;;;4986685;28;19992;-82
2023/04/02 14:38:22;;;;;;;;;;;10.20;99.90;;;;;;5000344;28;19905;-82
2023/04/02 14:41:09;;;;;;;;;;;10.10;99.90;;;;;;5011036;28;19939;-82
2023/04/02 14:43:41;;;;;;;;;;;10.00;99.90;;;;;;4986143;28;19905;-81
2023/04/02 14:46:11;;;;;;;;;;;9.80;99.90;;;;;;4981138;28;20670;-81
2023/04/02 14:48:46;;;;;;;;;;;9.70;99.90;;;;;;4984668;28;19909;-81
2023/04/02 14:54:27;;;;;;;;;;;9.50;99.90;;;;;;4997201;28;19919;-82
2023/04/02 14:57:01;;;;;;;;;;;9.60;99.90;;;;;;5000155;28;19909;-82
2023/04/02 14:59:50;;;;;;;;;;;9.80;99.90;;;;;;4992673;28;19946;-82
2023/04/02 15:02:27;;;;;;;;;;;9.80;99.90;;;;;;4990659;28;19968;-82
2023/04/02 15:05:17;;;;;;;;;;;10.00;99.90;;;;;;5007391;28;20003;-82
2023/04/02 15:08:02;;;;;;;;;;;10.30;99.90;;;;;;4948723;28;19985;-82
2023/04/02 15:10:47;;;;;;;;;;;10.60;99.90;;;;;;5009332;28;19913;-82
2023/04/02 15:13:19;;;;;;;;;;;10.80;99.90;;;;;;4998793;28;19905;-82
2023/04/02 15:15:47;;;;;;;;;;;10.80;99.90;;;;;;4972690;28;20480;-82
2023/04/02 15:18:14;;;;;;;;;;;10.60;99.90;;;;;;5003937;28;19924;-82
2023/04/02 15:20:58;;;;;;;;;;;10.60;99.90;;;;;;4991023;28;20510;-83